sensor_id;sensor_type;location;lat;lon;timestamp;P1;durP1;ratioP1;P2;durP2;ratioP2
14040;SDS011;7095;51.388;6.196;2023-03-01T00:01:46;15.23;;;9.03;;
14040;SDS011;7095;51.388;6.196;2023-03-01T00:04:15;10.27;;;8.37;;
14040;SDS011;7095;51.388;6.196;2023-03-01T00:06:44;12.13;;;8.53;;
14040;SDS011;7095;51.388;6.196;2023-03-01T00:09:13;11.47;;;7.47;;
14040;SDS011;7095;51.388;6.196;2023-03-01T00:11:42;14.20;;;8.20;;
14040;SDS011;7095;51.388;6.196;2023-03-01T00:14:13;13.63;;;8.50;;
14040;SDS011;7095;51.388;6.196;2023-03-01T00:16:43;11.57;;;8.40;;
14040;SDS011;7095;51.388;6.196;2023-03-01T00:19:14;12.40;;;9.13;;
14040;SDS011;7095;51.388;6.196;2023-03-01T00:21:44;15.37;;;9.87;;
14040;SDS011;7095;51.388;6.196;2023-03-01T00:24:13;16.90;;;11.07;;
14040;SDS011;7095;51.388;6.196;2023-03-01T00:26:42;16.50;;;9.77;;
14040;SDS011;7095;51.388;6.196;2023-03-01T00:29:10;12.67;;;9.43;;
14040;SDS011;7095;51.388;6.196;2023-03-01T00:31:40;12.43;;;8.90;;
14040;SDS011;7095;51.388;6.196;2023-03-01T00:34:08;14.63;;;9.47;;
14040;SDS011;7095;51.388;6.196;2023-03-01T00:36:37;14.37;;;9.00;;
14040;SDS011;7095;51.388;6.196;2023-03-01T00:39:09;12.23;;;8.97;;
14040;SDS011;7095;51.388;6.196;2023-03-01T00:41:40;12.93;;;9.10;;
14040;SDS011;7095;51.388;6.196;2023-03-01T00:44:08;13.50;;;8.67;;
14040;SDS011;7095;51.388;6.196;2023-03-01T00:46:37;21.67;;;9.73;;
14040;SDS011;7095;51.388;6.196;2023-03-01T00:49:08;13.23;;;9.60;;
14040;SDS011;7095;51.388;6.196;2023-03-01T00:51:36;15.67;;;10.07;;
14040;SDS011;7095;51.388;6.196;2023-03-01T00:54:07;14.87;;;8.97;;
14040;SDS011;7095;51.388;6.196;2023-03-01T00:56:37;23.83;;;9.87;;
14040;SDS011;7095;51.388;6.196;2023-03-01T00:59:06;13.93;;;9.57;;
14040;SDS011;7095;51.388;6.196;2023-03-01T01:01:34;13.10;;;9.73;;
14040;SDS011;7095;51.388;6.196;2023-03-01T01:04:04;12.60;;;9.17;;
14040;SDS011;7095;51.388;6.196;2023-03-01T01:06:35;15.60;;;8.47;;
14040;SDS011;7095;51.388;6.196;2023-03-01T01:09:05;14.67;;;8.83;;
14040;SDS011;7095;51.388;6.196;2023-03-01T01:11:35;11.57;;;7.83;;
14040;SDS011;7095;51.388;6.196;2023-03-01T01:14:04;13.30;;;8.20;;
14040;SDS011;7095;51.388;6.196;2023-03-01T01:16:32;11.57;;;8.40;;
14040;SDS011;7095;51.388;6.196;2023-03-01T01:19:01;11.37;;;8.70;;
14040;SDS011;7095;51.388;6.196;2023-03-01T01:21:29;13.77;;;9.33;;
14040;SDS011;7095;51.388;6.196;2023-03-01T01:24:00;15.77;;;9.23;;
14040;SDS011;7095;51.388;6.196;2023-03-01T01:26:32;17.67;;;9.33;;
14040;SDS011;7095;51.388;6.196;2023-03-01T01:29:02;10.20;;;8.17;;
14040;SDS011;7095;51.388;6.196;2023-03-01T01:31:32;13.87;;;9.40;;
14040;SDS011;7095;51.388;6.196;2023-03-01T01:34:02;15.83;;;9.70;;
14040;SDS011;7095;51.388;6.196;2023-03-01T01:36:32;13.47;;;9.30;;
14040;SDS011;7095;51.388;6.196;2023-03-01T01:39:02;14.67;;;8.07;;
14040;SDS011;7095;51.388;6.196;2023-03-01T01:41:31;15.17;;;9.13;;
14040;SDS011;7095;51.388;6.196;2023-03-01T01:46:49;16.23;;;8.77;;
14040;SDS011;7095;51.388;6.196;2023-03-01T01:49:25;12.57;;;8.50;;
14040;SDS011;7095;51.388;6.196;2023-03-01T01:52:00;11.83;;;9.07;;
14040;SDS011;7095;51.388;6.196;2023-03-01T01:54:38;11.87;;;8.57;;
14040;SDS011;7095;51.388;6.196;2023-03-01T01:57:13;22.07;;;8.83;;
14040;SDS011;7095;51.388;6.196;2023-03-01T01:59:47;14.97;;;9.80;;
14040;SDS011;7095;51.388;6.196;2023-03-01T02:02:20;16.80;;;10.23;;
14040;SDS011;7095;51.388;6.196;2023-03-01T02:04:49;14.00;;;9.40;;
14040;SDS011;7095;51.388;6.196;2023-03-01T02:07:25;14.37;;;9.57;;
14040;SDS011;7095;51.388;6.196;2023-03-01T02:09:55;13.70;;;8.43;;
14040;SDS011;7095;51.388;6.196;2023-03-01T02:12:24;13.73;;;9.57;;
14040;SDS011;7095;51.388;6.196;2023-03-01T02:14:54;15.77;;;10.87;;
14040;SDS011;7095;51.388;6.196;2023-03-01T02:17:22;14.30;;;10.53;;
14040;SDS011;7095;51.388;6.196;2023-03-01T02:19:55;18.13;;;11.30;;
14040;SDS011;7095;51.388;6.196;2023-03-01T02:22:37;19.60;;;11.00;;
14040;SDS011;7095;51.388;6.196;2023-03-01T02:25:11;19.63;;;10.83;;
14040;SDS011;7095;51.388;6.196;2023-03-01T02:27:48;17.63;;;10.70;;
14040;SDS011;7095;51.388;6.196;2023-03-01T02:30:24;19.07;;;10.27;;
14040;SDS011;7095;51.388;6.196;2023-03-01T02:32:53;14.53;;;10.53;;
14040;SDS011;7095;51.388;6.196;2023-03-01T02:35:30;12.30;;;9.00;;
14040;SDS011;7095;51.388;6.196;2023-03-01T02:38:01;15.23;;;9.57;;
14040;SDS011;7095;51.388;6.196;2023-03-01T02:40:31;10.47;;;8.47;;
14040;SDS011;7095;51.388;6.196;2023-03-01T02:43:02;14.57;;;9.63;;
14040;SDS011;7095;51.388;6.196;2023-03-01T02:45:35;16.67;;;9.53;;
14040;SDS011;7095;51.388;6.196;2023-03-01T02:48:04;12.20;;;8.93;;
14040;SDS011;7095;51.388;6.196;2023-03-01T02:50:43;15.47;;;9.77;;
14040;SDS011;7095;51.388;6.196;2023-03-01T02:53:21;15.83;;;9.70;;
14040;SDS011;7095;51.388;6.196;2023-03-01T02:55:56;14.30;;;10.03;;
14040;SDS011;7095;51.388;6.196;2023-03-01T02:58:26;15.00;;;10.03;;
14040;SDS011;7095;51.388;6.196;2023-03-01T03:00:56;16.43;;;10.47;;
14040;SDS011;7095;51.388;6.196;2023-03-01T03:03:27;13.27;;;9.93;;
14040;SDS011;7095;51.388;6.196;2023-03-01T03:05:56;16.60;;;11.37;;
14040;SDS011;7095;51.388;6.196;2023-03-01T03:08:25;16.47;;;10.63;;
14040;SDS011;7095;51.388;6.196;2023-03-01T03:10:54;16.60;;;10.87;;
14040;SDS011;7095;51.388;6.196;2023-03-01T03:13:23;16.60;;;10.67;;
14040;SDS011;7095;51.388;6.196;2023-03-01T03:15:56;14.90;;;9.93;;
14040;SDS011;7095;51.388;6.196;2023-03-01T03:18:25;14.97;;;10.13;;
14040;SDS011;7095;51.388;6.196;2023-03-01T03:20:53;14.73;;;10.17;;
14040;SDS011;7095;51.388;6.196;2023-03-01T03:23:22;15.63;;;9.87;;
14040;SDS011;7095;51.388;6.196;2023-03-01T03:25:51;14.10;;;10.20;;
14040;SDS011;7095;51.388;6.196;2023-03-01T03:28:19;13.30;;;10.23;;
14040;SDS011;7095;51.388;6.196;2023-03-01T03:30:48;14.17;;;9.67;;
14040;SDS011;7095;51.388;6.196;2023-03-01T03:33:18;14.23;;;9.17;;
14040;SDS011;7095;51.388;6.196;2023-03-01T03:35:47;15.97;;;11.13;;
14040;SDS011;7095;51.388;6.196;2023-03-01T03:38:17;17.20;;;10.67;;
14040;SDS011;7095;51.388;6.196;2023-03-01T03:40:49;17.47;;;11.30;;
14040;SDS011;7095;51.388;6.196;2023-03-01T03:43:19;17.03;;;11.47;;
14040;SDS011;7095;51.388;6.196;2023-03-01T03:45:50;17.43;;;10.47;;
14040;SDS011;7095;51.388;6.196;2023-03-01T03:48:20;14.03;;;9.70;;
14040;SDS011;7095;51.388;6.196;2023-03-01T03:50:49;14.33;;;9.87;;
14040;SDS011;7095;51.388;6.196;2023-03-01T03:53:20;15.40;;;9.33;;
14040;SDS011;7095;51.388;6.196;2023-03-01T03:55:50;16.07;;;10.03;;
14040;SDS011;7095;51.388;6.196;2023-03-01T03:58:19;14.60;;;10.63;;
14040;SDS011;7095;51.388;6.196;2023-03-01T04:00:50;15.87;;;10.17;;
14040;SDS011;7095;51.388;6.196;2023-03-01T04:03:21;22.47;;;11.30;;
14040;SDS011;7095;51.388;6.196;2023-03-01T04:05:51;17.03;;;10.20;;
14040;SDS011;7095;51.388;6.196;2023-03-01T04:08:21;17.73;;;10.47;;
14040;SDS011;7095;51.388;6.196;2023-03-01T04:10:51;17.30;;;10.93;;
14040;SDS011;7095;51.388;6.196;2023-03-01T04:13:24;22.23;;;12.13;;
14040;SDS011;7095;51.388;6.196;2023-03-01T04:15:52;21.57;;;11.13;;
14040;SDS011;7095;51.388;6.196;2023-03-01T04:18:23;18.37;;;11.87;;
14040;SDS011;7095;51.388;6.196;2023-03-01T04:20:53;14.53;;;9.27;;
14040;SDS011;7095;51.388;6.196;2023-03-01T04:23:22;14.80;;;9.83;;
14040;SDS011;7095;51.388;6.196;2023-03-01T04:25:52;18.87;;;10.53;;
14040;SDS011;7095;51.388;6.196;2023-03-01T04:28:22;13.97;;;9.90;;
14040;SDS011;7095;51.388;6.196;2023-03-01T04:30:51;16.30;;;10.33;;
14040;SDS011;7095;51.388;6.196;2023-03-01T04:33:21;14.07;;;10.43;;
14040;SDS011;7095;51.388;6.196;2023-03-01T04:35:52;20.17;;;11.03;;
14040;SDS011;7095;51.388;6.196;2023-03-01T04:38:21;15.57;;;10.23;;
14040;SDS011;7095;51.388;6.196;2023-03-01T04:40:50;17.83;;;10.73;;
14040;SDS011;7095;51.388;6.196;2023-03-01T04:43:18;16.87;;;11.30;;
14040;SDS011;7095;51.388;6.196;2023-03-01T04:45:46;14.73;;;10.10;;
14040;SDS011;7095;51.388;6.196;2023-03-01T04:48:15;16.13;;;9.80;;
14040;SDS011;7095;51.388;6.196;2023-03-01T04:50:45;15.77;;;10.03;;
14040;SDS011;7095;51.388;6.196;2023-03-01T04:53:13;15.17;;;9.30;;
14040;SDS011;7095;51.388;6.196;2023-03-01T04:55:42;14.67;;;9.90;;
14040;SDS011;7095;51.388;6.196;2023-03-01T04:58:10;20.13;;;11.17;;
14040;SDS011;7095;51.388;6.196;2023-03-01T05:00:39;16.40;;;11.10;;
14040;SDS011;7095;51.388;6.196;2023-03-01T05:03:10;17.67;;;11.27;;
14040;SDS011;7095;51.388;6.196;2023-03-01T05:05:39;21.30;;;12.00;;
14040;SDS011;7095;51.388;6.196;2023-03-01T05:08:12;18.13;;;11.33;;
14040;SDS011;7095;51.388;6.196;2023-03-01T05:10:44;19.27;;;10.80;;
14040;SDS011;7095;51.388;6.196;2023-03-01T05:13:14;17.70;;;10.50;;
14040;SDS011;7095;51.388;6.196;2023-03-01T05:15:47;17.93;;;11.40;;
14040;SDS011;7095;51.388;6.196;2023-03-01T05:18:21;13.80;;;9.87;;
14040;SDS011;7095;51.388;6.196;2023-03-01T05:20:52;16.60;;;10.33;;
14040;SDS011;7095;51.388;6.196;2023-03-01T05:23:24;19.53;;;10.47;;
14040;SDS011;7095;51.388;6.196;2023-03-01T05:25:52;16.93;;;10.20;;
14040;SDS011;7095;51.388;6.196;2023-03-01T05:28:21;18.30;;;11.80;;
14040;SDS011;7095;51.388;6.196;2023-03-01T05:30:50;20.87;;;12.33;;
14040;SDS011;7095;51.388;6.196;2023-03-01T05:33:18;14.57;;;9.80;;
14040;SDS011;7095;51.388;6.196;2023-03-01T05:35:48;17.73;;;10.97;;
14040;SDS011;7095;51.388;6.196;2023-03-01T05:38:18;18.43;;;11.00;;
14040;SDS011;7095;51.388;6.196;2023-03-01T05:40:49;16.13;;;10.93;;
14040;SDS011;7095;51.388;6.196;2023-03-01T05:43:17;20.63;;;11.93;;
14040;SDS011;7095;51.388;6.196;2023-03-01T05:45:46;14.83;;;10.53;;
14040;SDS011;7095;51.388;6.196;2023-03-01T05:48:14;18.60;;;10.30;;
14040;SDS011;7095;51.388;6.196;2023-03-01T05:50:43;19.80;;;10.87;;
14040;SDS011;7095;51.388;6.196;2023-03-01T05:53:15;13.83;;;9.97;;
14040;SDS011;7095;51.388;6.196;2023-03-01T05:55:46;21.50;;;11.27;;
14040;SDS011;7095;51.388;6.196;2023-03-01T05:58:18;15.40;;;10.47;;
14040;SDS011;7095;51.388;6.196;2023-03-01T06:00:48;21.33;;;11.73;;
14040;SDS011;7095;51.388;6.196;2023-03-01T06:03:20;16.63;;;10.43;;
14040;SDS011;7095;51.388;6.196;2023-03-01T06:05:49;15.67;;;10.17;;
14040;SDS011;7095;51.388;6.196;2023-03-01T06:08:17;21.53;;;11.17;;
14040;SDS011;7095;51.388;6.196;2023-03-01T06:10:46;17.83;;;12.00;;
14040;SDS011;7095;51.388;6.196;2023-03-01T06:13:15;19.67;;;11.87;;
14040;SDS011;7095;51.388;6.196;2023-03-01T06:15:45;21.53;;;11.07;;
14040;SDS011;7095;51.388;6.196;2023-03-01T06:18:13;17.60;;;10.87;;
14040;SDS011;7095;51.388;6.196;2023-03-01T06:20:42;18.80;;;11.23;;
14040;SDS011;7095;51.388;6.196;2023-03-01T06:23:10;19.60;;;11.93;;
14040;SDS011;7095;51.388;6.196;2023-03-01T06:25:39;17.73;;;10.70;;
14040;SDS011;7095;51.388;6.196;2023-03-01T06:28:07;20.40;;;12.77;;
14040;SDS011;7095;51.388;6.196;2023-03-01T06:30:36;21.63;;;11.97;;
14040;SDS011;7095;51.388;6.196;2023-03-01T06:33:06;19.27;;;12.00;;
14040;SDS011;7095;51.388;6.196;2023-03-01T06:35:34;23.83;;;11.57;;
14040;SDS011;7095;51.388;6.196;2023-03-01T06:38:05;18.67;;;11.30;;
14040;SDS011;7095;51.388;6.196;2023-03-01T06:40:34;21.67;;;12.13;;
14040;SDS011;7095;51.388;6.196;2023-03-01T06:43:03;20.67;;;12.13;;
14040;SDS011;7095;51.388;6.196;2023-03-01T06:45:32;21.73;;;12.53;;
14040;SDS011;7095;51.388;6.196;2023-03-01T06:48:02;18.87;;;12.27;;
14040;SDS011;7095;51.388;6.196;2023-03-01T06:50:33;19.57;;;11.67;;
14040;SDS011;7095;51.388;6.196;2023-03-01T06:53:02;19.90;;;11.70;;
14040;SDS011;7095;51.388;6.196;2023-03-01T06:55:31;20.40;;;12.33;;
14040;SDS011;7095;51.388;6.196;2023-03-01T06:58:00;15.90;;;11.33;;
14040;SDS011;7095;51.388;6.196;2023-03-01T07:00:31;18.97;;;11.50;;
14040;SDS011;7095;51.388;6.196;2023-03-01T07:02:59;27.07;;;13.43;;
14040;SDS011;7095;51.388;6.196;2023-03-01T07:05:29;22.03;;;11.63;;
14040;SDS011;7095;51.388;6.196;2023-03-01T07:07:59;19.43;;;12.37;;
14040;SDS011;7095;51.388;6.196;2023-03-01T07:10:28;25.47;;;13.17;;
14040;SDS011;7095;51.388;6.196;2023-03-01T07:12:57;20.20;;;12.33;;
14040;SDS011;7095;51.388;6.196;2023-03-01T07:15:26;22.33;;;13.03;;
14040;SDS011;7095;51.388;6.196;2023-03-01T07:17:55;29.10;;;16.07;;
14040;SDS011;7095;51.388;6.196;2023-03-01T07:20:24;23.13;;;13.80;;
14040;SDS011;7095;51.388;6.196;2023-03-01T07:22:53;26.90;;;15.10;;
14040;SDS011;7095;51.388;6.196;2023-03-01T07:25:24;22.70;;;14.33;;
14040;SDS011;7095;51.388;6.196;2023-03-01T07:27:53;23.40;;;13.67;;
14040;SDS011;7095;51.388;6.196;2023-03-01T07:30:22;22.37;;;13.83;;
14040;SDS011;7095;51.388;6.196;2023-03-01T07:32:52;22.30;;;14.07;;
14040;SDS011;7095;51.388;6.196;2023-03-01T07:35:21;20.80;;;13.70;;
14040;SDS011;7095;51.388;6.196;2023-03-01T07:37:51;20.60;;;13.37;;
14040;SDS011;7095;51.388;6.196;2023-03-01T07:40:19;21.90;;;14.43;;
14040;SDS011;7095;51.388;6.196;2023-03-01T07:42:49;20.47;;;12.80;;
14040;SDS011;7095;51.388;6.196;2023-03-01T07:45:23;19.37;;;13.47;;
14040;SDS011;7095;51.388;6.196;2023-03-01T07:47:55;19.60;;;12.73;;
14040;SDS011;7095;51.388;6.196;2023-03-01T07:50:23;18.93;;;13.40;;
14040;SDS011;7095;51.388;6.196;2023-03-01T07:52:52;21.60;;;13.77;;
14040;SDS011;7095;51.388;6.196;2023-03-01T07:55:20;21.43;;;13.33;;
14040;SDS011;7095;51.388;6.196;2023-03-01T07:57:50;25.10;;;14.00;;
14040;SDS011;7095;51.388;6.196;2023-03-01T08:00:19;17.93;;;12.60;;
14040;SDS011;7095;51.388;6.196;2023-03-01T08:02:47;16.43;;;11.90;;
14040;SDS011;7095;51.388;6.196;2023-03-01T08:05:16;20.67;;;12.77;;
14040;SDS011;7095;51.388;6.196;2023-03-01T08:07:44;21.37;;;13.17;;
14040;SDS011;7095;51.388;6.196;2023-03-01T08:10:13;21.47;;;11.53;;
14040;SDS011;7095;51.388;6.196;2023-03-01T08:12:42;17.73;;;11.53;;
14040;SDS011;7095;51.388;6.196;2023-03-01T08:15:12;19.70;;;12.73;;
14040;SDS011;7095;51.388;6.196;2023-03-01T08:17:40;20.03;;;12.30;;
14040;SDS011;7095;51.388;6.196;2023-03-01T08:20:09;18.23;;;11.47;;
14040;SDS011;7095;51.388;6.196;2023-03-01T08:22:39;17.83;;;11.63;;
14040;SDS011;7095;51.388;6.196;2023-03-01T08:25:11;18.27;;;11.47;;
14040;SDS011;7095;51.388;6.196;2023-03-01T08:27:39;17.93;;;11.13;;
14040;SDS011;7095;51.388;6.196;2023-03-01T08:30:08;22.90;;;12.63;;
14040;SDS011;7095;51.388;6.196;2023-03-01T08:32:39;21.43;;;12.20;;
14040;SDS011;7095;51.388;6.196;2023-03-01T08:35:08;18.30;;;11.13;;
14040;SDS011;7095;51.388;6.196;2023-03-01T08:37:36;17.37;;;11.63;;
14040;SDS011;7095;51.388;6.196;2023-03-01T08:40:05;24.30;;;11.47;;
14040;SDS011;7095;51.388;6.196;2023-03-01T08:42:36;17.33;;;11.93;;
14040;SDS011;7095;51.388;6.196;2023-03-01T08:45:05;18.03;;;11.43;;
14040;SDS011;7095;51.388;6.196;2023-03-01T08:47:35;18.97;;;10.40;;
14040;SDS011;7095;51.388;6.196;2023-03-01T08:50:05;18.40;;;11.07;;
14040;SDS011;7095;51.388;6.196;2023-03-01T08:52:35;17.80;;;10.67;;
14040;SDS011;7095;51.388;6.196;2023-03-01T08:55:04;18.83;;;11.13;;
14040;SDS011;7095;51.388;6.196;2023-03-01T08:57:33;19.40;;;11.43;;
14040;SDS011;7095;51.388;6.196;2023-03-01T09:00:02;17.17;;;10.47;;
14040;SDS011;7095;51.388;6.196;2023-03-01T09:02:35;16.20;;;10.70;;
14040;SDS011;7095;51.388;6.196;2023-03-01T09:05:05;19.17;;;11.33;;
14040;SDS011;7095;51.388;6.196;2023-03-01T09:07:34;14.03;;;9.97;;
14040;SDS011;7095;51.388;6.196;2023-03-01T09:10:03;16.37;;;11.17;;
14040;SDS011;7095;51.388;6.196;2023-03-01T09:12:32;26.27;;;11.70;;
14040;SDS011;7095;51.388;6.196;2023-03-01T09:15:00;17.97;;;10.90;;
14040;SDS011;7095;51.388;6.196;2023-03-01T09:17:29;22.47;;;11.40;;
14040;SDS011;7095;51.388;6.196;2023-03-01T09:19:57;16.63;;;11.17;;
14040;SDS011;7095;51.388;6.196;2023-03-01T09:22:27;18.53;;;12.07;;
14040;SDS011;7095;51.388;6.196;2023-03-01T09:24:56;21.10;;;11.73;;
14040;SDS011;7095;51.388;6.196;2023-03-01T09:27:26;23.60;;;11.67;;
14040;SDS011;7095;51.388;6.196;2023-03-01T09:29:54;20.23;;;12.50;;
14040;SDS011;7095;51.388;6.196;2023-03-01T09:32:24;19.00;;;11.77;;
14040;SDS011;7095;51.388;6.196;2023-03-01T09:34:52;20.20;;;11.70;;
14040;SDS011;7095;51.388;6.196;2023-03-01T09:37:33;18.73;;;11.60;;
14040;SDS011;7095;51.388;6.196;2023-03-01T09:40:04;16.93;;;11.37;;
14040;SDS011;7095;51.388;6.196;2023-03-01T09:42:46;14.23;;;10.80;;
14040;SDS011;7095;51.388;6.196;2023-03-01T09:45:23;17.93;;;11.07;;
14040;SDS011;7095;51.388;6.196;2023-03-01T09:47:55;19.30;;;11.57;;
14040;SDS011;7095;51.388;6.196;2023-03-01T09:50:25;31.07;;;14.77;;
14040;SDS011;7095;51.388;6.196;2023-03-01T09:53:01;20.83;;;11.20;;
14040;SDS011;7095;51.388;6.196;2023-03-01T09:55:32;24.03;;;13.30;;
14040;SDS011;7095;51.388;6.196;2023-03-01T09:58:08;13.77;;;10.17;;
14040;SDS011;7095;51.388;6.196;2023-03-01T10:00:56;14.40;;;10.27;;
14040;SDS011;7095;51.388;6.196;2023-03-01T10:03:29;20.17;;;10.87;;
14040;SDS011;7095;51.388;6.196;2023-03-01T10:06:04;18.57;;;11.77;;
14040;SDS011;7095;51.388;6.196;2023-03-01T10:09:00;19.60;;;10.87;;
14040;SDS011;7095;51.388;6.196;2023-03-01T10:11:33;23.90;;;11.73;;
14040;SDS011;7095;51.388;6.196;2023-03-01T10:14:06;15.87;;;10.03;;
14040;SDS011;7095;51.388;6.196;2023-03-01T10:16:50;19.53;;;10.27;;
14040;SDS011;7095;51.388;6.196;2023-03-01T10:19:27;16.17;;;10.77;;
14040;SDS011;7095;51.388;6.196;2023-03-01T10:22:03;23.07;;;10.73;;
14040;SDS011;7095;51.388;6.196;2023-03-01T10:24:40;15.33;;;11.00;;
14040;SDS011;7095;51.388;6.196;2023-03-01T10:27:10;17.20;;;10.93;;
14040;SDS011;7095;51.388;6.196;2023-03-01T10:29:46;20.00;;;11.10;;
14040;SDS011;7095;51.388;6.196;2023-03-01T10:32:20;18.40;;;11.03;;
14040;SDS011;7095;51.388;6.196;2023-03-01T10:34:51;15.03;;;10.37;;
14040;SDS011;7095;51.388;6.196;2023-03-01T10:37:20;18.37;;;11.60;;
14040;SDS011;7095;51.388;6.196;2023-03-01T10:39:56;15.97;;;11.10;;
14040;SDS011;7095;51.388;6.196;2023-03-01T10:42:27;20.27;;;10.50;;
14040;SDS011;7095;51.388;6.196;2023-03-01T10:44:57;17.43;;;9.43;;
14040;SDS011;7095;51.388;6.196;2023-03-01T10:47:26;16.77;;;10.07;;
14040;SDS011;7095;51.388;6.196;2023-03-01T10:49:57;15.47;;;10.43;;
14040;SDS011;7095;51.388;6.196;2023-03-01T10:52:32;17.80;;;10.27;;
14040;SDS011;7095;51.388;6.196;2023-03-01T10:55:04;18.53;;;9.80;;
14040;SDS011;7095;51.388;6.196;2023-03-01T10:58:05;16.83;;;10.40;;
14040;SDS011;7095;51.388;6.196;2023-03-01T11:00:45;20.53;;;11.40;;
14040;SDS011;7095;51.388;6.196;2023-03-01T11:03:17;16.97;;;10.10;;
14040;SDS011;7095;51.388;6.196;2023-03-01T11:05:56;16.27;;;9.57;;
14040;SDS011;7095;51.388;6.196;2023-03-01T11:08:35;16.37;;;10.17;;
14040;SDS011;7095;51.388;6.196;2023-03-01T11:11:18;16.33;;;8.93;;
14040;SDS011;7095;51.388;6.196;2023-03-01T11:13:50;14.63;;;9.30;;
14040;SDS011;7095;51.388;6.196;2023-03-01T11:16:29;16.03;;;9.10;;
14040;SDS011;7095;51.388;6.196;2023-03-01T11:19:03;14.50;;;8.97;;
14040;SDS011;7095;51.388;6.196;2023-03-01T11:21:44;19.20;;;9.23;;
14040;SDS011;7095;51.388;6.196;2023-03-01T11:24:27;20.83;;;9.60;;
14040;SDS011;7095;51.388;6.196;2023-03-01T11:27:03;15.80;;;8.73;;
14040;SDS011;7095;51.388;6.196;2023-03-01T11:29:36;10.37;;;7.87;;
14040;SDS011;7095;51.388;6.196;2023-03-01T11:32:14;14.80;;;9.10;;
14040;SDS011;7095;51.388;6.196;2023-03-01T11:34:44;12.20;;;8.53;;
14040;SDS011;7095;51.388;6.196;2023-03-01T11:37:20;17.00;;;9.17;;
14040;SDS011;7095;51.388;6.196;2023-03-01T11:40:02;16.87;;;8.97;;
14040;SDS011;7095;51.388;6.196;2023-03-01T11:42:44;17.93;;;9.13;;
14040;SDS011;7095;51.388;6.196;2023-03-01T11:45:18;14.10;;;9.07;;
14040;SDS011;7095;51.388;6.196;2023-03-01T11:48:03;14.87;;;8.80;;
14040;SDS011;7095;51.388;6.196;2023-03-01T11:50:42;14.43;;;10.00;;
14040;SDS011;7095;51.388;6.196;2023-03-01T11:53:23;16.73;;;9.83;;
14040;SDS011;7095;51.388;6.196;2023-03-01T11:56:03;16.37;;;8.87;;
14040;SDS011;7095;51.388;6.196;2023-03-01T11:58:53;17.80;;;8.90;;
14040;SDS011;7095;51.388;6.196;2023-03-01T12:01:32;14.13;;;9.27;;
14040;SDS011;7095;51.388;6.196;2023-03-01T12:04:19;14.43;;;9.17;;
14040;SDS011;7095;51.388;6.196;2023-03-01T12:07:05;20.07;;;8.97;;
14040;SDS011;7095;51.388;6.196;2023-03-01T12:09:48;16.70;;;9.40;;
14040;SDS011;7095;51.388;6.196;2023-03-01T12:12:29;12.13;;;8.57;;
14040;SDS011;7095;51.388;6.196;2023-03-01T12:15:20;13.60;;;8.40;;
14040;SDS011;7095;51.388;6.196;2023-03-01T12:20:58;11.90;;;8.13;;
14040;SDS011;7095;51.388;6.196;2023-03-01T12:26:32;14.17;;;8.27;;
14040;SDS011;7095;51.388;6.196;2023-03-01T12:34:55;12.83;;;7.13;;
14040;SDS011;7095;51.388;6.196;2023-03-01T12:37:36;16.03;;;7.73;;
14040;SDS011;7095;51.388;6.196;2023-03-01T12:40:19;12.80;;;7.60;;
14040;SDS011;7095;51.388;6.196;2023-03-01T12:43:03;11.83;;;7.50;;
14040;SDS011;7095;51.388;6.196;2023-03-01T12:45:50;13.03;;;7.00;;
14040;SDS011;7095;51.388;6.196;2023-03-01T12:48:30;12.33;;;7.40;;
14040;SDS011;7095;51.388;6.196;2023-03-01T12:51:07;11.50;;;7.30;;
14040;SDS011;7095;51.388;6.196;2023-03-01T12:53:39;10.20;;;6.60;;
14040;SDS011;7095;51.388;6.196;2023-03-01T12:56:13;12.70;;;7.13;;
14040;SDS011;7095;51.388;6.196;2023-03-01T12:58:47;8.37;;;6.40;;
14040;SDS011;7095;51.388;6.196;2023-03-01T13:01:28;9.13;;;6.53;;
14040;SDS011;7095;51.388;6.196;2023-03-01T13:04:12;11.30;;;6.63;;
14040;SDS011;7095;51.388;6.196;2023-03-01T13:06:49;9.33;;;6.57;;
14040;SDS011;7095;51.388;6.196;2023-03-01T13:09:28;10.20;;;6.00;;
14040;SDS011;7095;51.388;6.196;2023-03-01T13:12:03;9.30;;;6.13;;
14040;SDS011;7095;51.388;6.196;2023-03-01T13:14:45;10.20;;;7.17;;
14040;SDS011;7095;51.388;6.196;2023-03-01T13:17:30;10.07;;;6.57;;
14040;SDS011;7095;51.388;6.196;2023-03-01T13:20:02;9.30;;;5.90;;
14040;SDS011;7095;51.388;6.196;2023-03-01T13:22:40;11.03;;;7.13;;
14040;SDS011;7095;51.388;6.196;2023-03-01T13:25:21;6.80;;;5.40;;
14040;SDS011;7095;51.388;6.196;2023-03-01T13:31:08;9.73;;;6.70;;
14040;SDS011;7095;51.388;6.196;2023-03-01T13:33:41;10.90;;;6.50;;
14040;SDS011;7095;51.388;6.196;2023-03-01T13:39:28;9.23;;;6.17;;
14040;SDS011;7095;51.388;6.196;2023-03-01T13:42:02;8.70;;;6.10;;
14040;SDS011;7095;51.388;6.196;2023-03-01T13:44:32;7.23;;;5.60;;
14040;SDS011;7095;51.388;6.196;2023-03-01T13:47:06;8.27;;;5.77;;
14040;SDS011;7095;51.388;6.196;2023-03-01T13:49:46;10.43;;;6.40;;
14040;SDS011;7095;51.388;6.196;2023-03-01T13:52:27;7.87;;;6.10;;
14040;SDS011;7095;51.388;6.196;2023-03-01T13:55:03;8.53;;;5.33;;
14040;SDS011;7095;51.388;6.196;2023-03-01T13:57:34;11.23;;;6.97;;
14040;SDS011;7095;51.388;6.196;2023-03-01T14:00:06;8.10;;;5.60;;
14040;SDS011;7095;51.388;6.196;2023-03-01T14:02:35;9.90;;;6.13;;
14040;SDS011;7095;51.388;6.196;2023-03-01T14:05:05;8.03;;;6.23;;
14040;SDS011;7095;51.388;6.196;2023-03-01T14:07:40;7.47;;;5.83;;
14040;SDS011;7095;51.388;6.196;2023-03-01T14:10:11;9.03;;;5.87;;
14040;SDS011;7095;51.388;6.196;2023-03-01T14:12:42;9.20;;;6.87;;
14040;SDS011;7095;51.388;6.196;2023-03-01T14:15:17;8.07;;;6.30;;
14040;SDS011;7095;51.388;6.196;2023-03-01T14:17:52;10.97;;;6.30;;
14040;SDS011;7095;51.388;6.196;2023-03-01T14:20:28;9.63;;;6.30;;
14040;SDS011;7095;51.388;6.196;2023-03-01T14:23:02;8.83;;;6.53;;
14040;SDS011;7095;51.388;6.196;2023-03-01T14:25:45;8.10;;;6.43;;
14040;SDS011;7095;51.388;6.196;2023-03-01T14:28:17;9.07;;;6.27;;
14040;SDS011;7095;51.388;6.196;2023-03-01T14:30:48;10.03;;;6.47;;
14040;SDS011;7095;51.388;6.196;2023-03-01T14:33:19;10.27;;;7.50;;
14040;SDS011;7095;51.388;6.196;2023-03-01T14:35:57;9.63;;;7.70;;
14040;SDS011;7095;51.388;6.196;2023-03-01T14:38:33;8.97;;;6.53;;
14040;SDS011;7095;51.388;6.196;2023-03-01T14:41:03;10.17;;;6.53;;
14040;SDS011;7095;51.388;6.196;2023-03-01T14:43:35;9.27;;;6.87;;
14040;SDS011;7095;51.388;6.196;2023-03-01T14:46:05;13.13;;;8.27;;
14040;SDS011;7095;51.388;6.196;2023-03-01T14:48:34;9.90;;;6.83;;
14040;SDS011;7095;51.388;6.196;2023-03-01T14:51:04;11.00;;;6.87;;
14040;SDS011;7095;51.388;6.196;2023-03-01T14:53:35;10.53;;;7.83;;
14040;SDS011;7095;51.388;6.196;2023-03-01T14:56:16;12.00;;;7.10;;
14040;SDS011;7095;51.388;6.196;2023-03-01T14:58:46;9.83;;;7.37;;
14040;SDS011;7095;51.388;6.196;2023-03-01T15:01:18;9.60;;;7.10;;
14040;SDS011;7095;51.388;6.196;2023-03-01T15:03:48;10.90;;;6.63;;
14040;SDS011;7095;51.388;6.196;2023-03-01T15:06:18;10.33;;;7.07;;
14040;SDS011;7095;51.388;6.196;2023-03-01T15:08:50;13.20;;;7.60;;
14040;SDS011;7095;51.388;6.196;2023-03-01T15:11:22;11.70;;;7.60;;
14040;SDS011;7095;51.388;6.196;2023-03-01T15:13:54;13.93;;;7.33;;
14040;SDS011;7095;51.388;6.196;2023-03-01T15:16:23;11.17;;;7.37;;
14040;SDS011;7095;51.388;6.196;2023-03-01T15:18:55;15.00;;;7.67;;
14040;SDS011;7095;51.388;6.196;2023-03-01T15:21:27;11.80;;;7.47;;
14040;SDS011;7095;51.388;6.196;2023-03-01T15:24:01;12.23;;;7.57;;
14040;SDS011;7095;51.388;6.196;2023-03-01T15:26:34;12.83;;;7.90;;
14040;SDS011;7095;51.388;6.196;2023-03-01T15:29:11;13.00;;;9.33;;
14040;SDS011;7095;51.388;6.196;2023-03-01T15:31:53;10.07;;;7.50;;
14040;SDS011;7095;51.388;6.196;2023-03-01T15:34:24;8.93;;;6.93;;